ANA89 RJTT-ROIG
Flight info
| Callsign | ANA89 |
|---|---|
| Flight time | N/A |
| Altitude | 40000 |
| Route | LAXAS Y56 TOHME Y54 KOHWA Y12 AYANO Y128 LAXEL Y52 TONAR Y525 KXC Y62 GANAS Y576 DIANA |
| Aircraft | B789/H-SDE1E2E3FGHIJ2J3J4J5M1RWXY/LB1D1 |
Departure
| Time | 2026-05-07 10:04 |
|---|---|
| Airport | Tokyo Haneda International Airport (RJTT) |
Arrival
| Time | N/A |
|---|---|
| Airport | New Ishigaki Airport (ROIG) |
| Time | Latitude | Longitude | Altitude | Speed | Heading |
|---|---|---|---|---|---|
| 2026-05-07 09:41 | 35.55162 | 139.78960 | 32 ft | 0 kts | 240° |
| 2026-05-07 09:53 | 35.55165 | 139.78968 | 32 ft | 4 kts | 240° |
| 2026-05-07 09:53 | 35.55179 | 139.78995 | 30 ft | 2 kts | 239° |
| 2026-05-07 09:53 | 35.55187 | 139.79018 | 29 ft | 4 kts | 269° |
| 2026-05-07 09:54 | 35.55182 | 139.79041 | 29 ft | 4 kts | 309° |
| 2026-05-07 09:54 | 35.55163 | 139.79062 | 31 ft | 3 kts | 329° |
| 2026-05-07 09:54 | 35.55161 | 139.79063 | 31 ft | 8 kts | 329° |
| 2026-05-07 09:56 | 35.55164 | 139.79061 | 31 ft | 3 kts | 330° |
| 2026-05-07 09:57 | 35.55200 | 139.79035 | 32 ft | 9 kts | 329° |
| 2026-05-07 09:57 | 35.55267 | 139.78987 | 33 ft | 14 kts | 330° |
| 2026-05-07 09:57 | 35.55355 | 139.78938 | 33 ft | 13 kts | 355° |
| 2026-05-07 09:57 | 35.55422 | 139.78981 | 32 ft | 10 kts | 59° |
| 2026-05-07 09:58 | 35.55476 | 139.79039 | 31 ft | 11 kts | 11° |
| 2026-05-07 09:58 | 35.55552 | 139.79009 | 31 ft | 12 kts | 332° |
| 2026-05-07 09:58 | 35.55637 | 139.78948 | 31 ft | 17 kts | 330° |
| 2026-05-07 09:58 | 35.55761 | 139.78862 | 28 ft | 24 kts | 330° |
| 2026-05-07 09:59 | 35.55906 | 139.78757 | 28 ft | 24 kts | 330° |
| 2026-05-07 09:59 | 35.56046 | 139.78658 | 28 ft | 23 kts | 330° |
| 2026-05-07 09:59 | 35.56188 | 139.78557 | 29 ft | 24 kts | 330° |
| 2026-05-07 09:59 | 35.56324 | 139.78450 | 30 ft | 20 kts | 308° |
| 2026-05-07 10:00 | 35.56312 | 139.78323 | 30 ft | 15 kts | 240° |
| 2026-05-07 10:00 | 35.56252 | 139.78195 | 30 ft | 20 kts | 240° |
| 2026-05-07 10:00 | 35.56182 | 139.78044 | 30 ft | 21 kts | 240° |
| 2026-05-07 10:00 | 35.56105 | 139.77886 | 29 ft | 22 kts | 239° |
| 2026-05-07 10:01 | 35.56025 | 139.77718 | 29 ft | 24 kts | 239° |
| 2026-05-07 10:01 | 35.55940 | 139.77538 | 27 ft | 25 kts | 240° |
| 2026-05-07 10:01 | 35.55870 | 139.77390 | 29 ft | 18 kts | 239° |
| 2026-05-07 10:01 | 35.55786 | 139.77292 | 27 ft | 16 kts | 214° |
| 2026-05-07 10:02 | 35.55740 | 139.77251 | 26 ft | 0 kts | 215° |
| 2026-05-07 10:02 | 35.55738 | 139.77249 | 27 ft | 2 kts | 215° |
| 2026-05-07 10:02 | 35.55709 | 139.77224 | 28 ft | 8 kts | 215° |
| 2026-05-07 10:02 | 35.55645 | 139.77182 | 30 ft | 13 kts | 195° |
| 2026-05-07 10:03 | 35.55559 | 139.77218 | 29 ft | 17 kts | 150° |
| 2026-05-07 10:03 | 35.55395 | 139.77334 | 28 ft | 44 kts | 150° |
| 2026-05-07 10:03 | 35.54960 | 139.77644 | 27 ft | 101 kts | 149° |
| 2026-05-07 10:03 | 35.54197 | 139.78193 | 28 ft | 151 kts | 150° |
| 2026-05-07 10:04 | 35.53321 | 139.78868 | 311 ft | 170 kts | 148° |
| 2026-05-07 10:04 | 35.52231 | 139.79596 | 927 ft | 179 kts | 154° |
| 2026-05-07 10:04 | 35.51146 | 139.80345 | 1749 ft | 182 kts | 155° |
| 2026-05-07 10:04 | 35.49951 | 139.81171 | 2016 ft | 212 kts | 155° |
| 2026-05-07 10:05 | 35.48574 | 139.82144 | 2284 ft | 245 kts | 154° |